sensor_id;sensor_type;location;lat;lon;timestamp;P1;durP1;ratioP1;P2;durP2;ratioP2
32633;SDS011;19043;51.012;5.648;2022-08-27T00:01:22;4.60;;;2.28;;
32633;SDS011;19043;51.012;5.648;2022-08-27T00:03:47;5.50;;;1.88;;
32633;SDS011;19043;51.012;5.648;2022-08-27T00:06:13;7.20;;;1.90;;
32633;SDS011;19043;51.012;5.648;2022-08-27T00:08:43;6.72;;;2.05;;
32633;SDS011;19043;51.012;5.648;2022-08-27T00:11:10;7.30;;;2.50;;
32633;SDS011;19043;51.012;5.648;2022-08-27T00:13:36;5.20;;;2.70;;
32633;SDS011;19043;51.012;5.648;2022-08-27T00:16:03;4.72;;;2.00;;
32633;SDS011;19043;51.012;5.648;2022-08-27T00:18:30;16.00;;;2.90;;
32633;SDS011;19043;51.012;5.648;2022-08-27T00:20:57;4.00;;;2.13;;
32633;SDS011;19043;51.012;5.648;2022-08-27T00:23:22;6.18;;;2.33;;
32633;SDS011;19043;51.012;5.648;2022-08-27T00:25:48;7.93;;;2.42;;
32633;SDS011;19043;51.012;5.648;2022-08-27T00:28:13;5.82;;;2.78;;
32633;SDS011;19043;51.012;5.648;2022-08-27T00:30:39;3.47;;;1.83;;
32633;SDS011;19043;51.012;5.648;2022-08-27T00:33:04;4.78;;;1.85;;
32633;SDS011;19043;51.012;5.648;2022-08-27T00:35:30;9.02;;;2.42;;
32633;SDS011;19043;51.012;5.648;2022-08-27T00:37:55;4.55;;;2.33;;
32633;SDS011;19043;51.012;5.648;2022-08-27T00:40:21;4.40;;;2.20;;
32633;SDS011;19043;51.012;5.648;2022-08-27T00:42:47;7.05;;;2.47;;
32633;SDS011;19043;51.012;5.648;2022-08-27T00:45:13;11.80;;;2.28;;
32633;SDS011;19043;51.012;5.648;2022-08-27T00:47:42;3.85;;;2.00;;
32633;SDS011;19043;51.012;5.648;2022-08-27T00:50:11;7.03;;;2.55;;
32633;SDS011;19043;51.012;5.648;2022-08-27T00:52:50;5.20;;;2.22;;
32633;SDS011;19043;51.012;5.648;2022-08-27T00:55:19;5.47;;;2.55;;
32633;SDS011;19043;51.012;5.648;2022-08-27T00:57:48;5.20;;;2.15;;
32633;SDS011;19043;51.012;5.648;2022-08-27T01:00:18;6.25;;;2.30;;
32633;SDS011;19043;51.012;5.648;2022-08-27T01:02:44;13.30;;;2.40;;
32633;SDS011;19043;51.012;5.648;2022-08-27T01:05:12;5.20;;;2.28;;
32633;SDS011;19043;51.012;5.648;2022-08-27T01:07:40;6.10;;;2.70;;
32633;SDS011;19043;51.012;5.648;2022-08-27T01:10:09;5.45;;;2.35;;
32633;SDS011;19043;51.012;5.648;2022-08-27T01:12:37;6.50;;;2.08;;
32633;SDS011;19043;51.012;5.648;2022-08-27T01:15:05;5.18;;;2.17;;
32633;SDS011;19043;51.012;5.648;2022-08-27T01:17:32;7.57;;;2.42;;
32633;SDS011;19043;51.012;5.648;2022-08-27T01:19:58;6.45;;;2.95;;
32633;SDS011;19043;51.012;5.648;2022-08-27T01:25:23;13.63;;;3.22;;
32633;SDS011;19043;51.012;5.648;2022-08-27T01:27:49;6.80;;;2.83;;
32633;SDS011;19043;51.012;5.648;2022-08-27T01:30:16;4.80;;;2.67;;
32633;SDS011;19043;51.012;5.648;2022-08-27T01:32:44;4.00;;;2.65;;
32633;SDS011;19043;51.012;5.648;2022-08-27T01:35:13;6.22;;;2.40;;
32633;SDS011;19043;51.012;5.648;2022-08-27T01:37:41;6.70;;;3.17;;
32633;SDS011;19043;51.012;5.648;2022-08-27T01:40:08;4.93;;;2.22;;
32633;SDS011;19043;51.012;5.648;2022-08-27T01:42:36;4.25;;;2.42;;
32633;SDS011;19043;51.012;5.648;2022-08-27T01:45:08;5.15;;;2.75;;
32633;SDS011;19043;51.012;5.648;2022-08-27T01:47:54;5.00;;;2.33;;
32633;SDS011;19043;51.012;5.648;2022-08-27T01:50:21;4.63;;;2.35;;
32633;SDS011;19043;51.012;5.648;2022-08-27T01:52:50;5.15;;;2.67;;
32633;SDS011;19043;51.012;5.648;2022-08-27T01:55:16;8.23;;;3.05;;
32633;SDS011;19043;51.012;5.648;2022-08-27T01:57:43;5.93;;;2.97;;
32633;SDS011;19043;51.012;5.648;2022-08-27T02:00:11;6.88;;;2.72;;
32633;SDS011;19043;51.012;5.648;2022-08-27T02:02:39;7.00;;;2.90;;
32633;SDS011;19043;51.012;5.648;2022-08-27T02:05:05;5.25;;;2.25;;
32633;SDS011;19043;51.012;5.648;2022-08-27T02:07:31;7.82;;;3.25;;
32633;SDS011;19043;51.012;5.648;2022-08-27T02:09:56;5.25;;;2.50;;
32633;SDS011;19043;51.012;5.648;2022-08-27T02:12:21;8.18;;;3.00;;
32633;SDS011;19043;51.012;5.648;2022-08-27T02:14:47;4.78;;;2.70;;
32633;SDS011;19043;51.012;5.648;2022-08-27T02:17:12;6.45;;;2.80;;
32633;SDS011;19043;51.012;5.648;2022-08-27T02:19:38;3.47;;;2.10;;
32633;SDS011;19043;51.012;5.648;2022-08-27T02:22:03;5.88;;;3.25;;
32633;SDS011;19043;51.012;5.648;2022-08-27T02:24:29;6.68;;;3.20;;
32633;SDS011;19043;51.012;5.648;2022-08-27T02:26:55;6.93;;;2.97;;
32633;SDS011;19043;51.012;5.648;2022-08-27T02:29:21;5.45;;;3.08;;
32633;SDS011;19043;51.012;5.648;2022-08-27T02:31:46;4.60;;;3.05;;
32633;SDS011;19043;51.012;5.648;2022-08-27T02:34:12;13.32;;;3.20;;
32633;SDS011;19043;51.012;5.648;2022-08-27T02:36:37;10.43;;;3.17;;
32633;SDS011;19043;51.012;5.648;2022-08-27T02:39:04;4.63;;;2.75;;
32633;SDS011;19043;51.012;5.648;2022-08-27T02:41:30;7.72;;;3.42;;
32633;SDS011;19043;51.012;5.648;2022-08-27T02:43:55;5.13;;;3.13;;
32633;SDS011;19043;51.012;5.648;2022-08-27T02:46:21;8.68;;;3.70;;
32633;SDS011;19043;51.012;5.648;2022-08-27T02:48:46;5.18;;;3.03;;
32633;SDS011;19043;51.012;5.648;2022-08-27T02:51:12;7.68;;;3.25;;
32633;SDS011;19043;51.012;5.648;2022-08-27T02:53:37;4.65;;;3.00;;
32633;SDS011;19043;51.012;5.648;2022-08-27T02:56:03;7.03;;;3.38;;
32633;SDS011;19043;51.012;5.648;2022-08-27T02:58:30;5.38;;;3.08;;
32633;SDS011;19043;51.012;5.648;2022-08-27T03:00:57;7.15;;;3.45;;
32633;SDS011;19043;51.012;5.648;2022-08-27T03:03:22;5.35;;;3.83;;
32633;SDS011;19043;51.012;5.648;2022-08-27T03:05:48;5.63;;;3.30;;
32633;SDS011;19043;51.012;5.648;2022-08-27T03:08:13;7.10;;;3.95;;
32633;SDS011;19043;51.012;5.648;2022-08-27T03:10:39;7.88;;;3.15;;
32633;SDS011;19043;51.012;5.648;2022-08-27T03:13:05;8.02;;;4.20;;
32633;SDS011;19043;51.012;5.648;2022-08-27T03:15:30;5.45;;;3.58;;
32633;SDS011;19043;51.012;5.648;2022-08-27T03:17:55;5.57;;;3.38;;
32633;SDS011;19043;51.012;5.648;2022-08-27T03:20:40;17.03;;;3.60;;
32633;SDS011;19043;51.012;5.648;2022-08-27T03:23:07;9.13;;;3.47;;
32633;SDS011;19043;51.012;5.648;2022-08-27T03:25:33;8.13;;;3.70;;
32633;SDS011;19043;51.012;5.648;2022-08-27T03:27:59;6.57;;;3.88;;
32633;SDS011;19043;51.012;5.648;2022-08-27T03:30:24;5.97;;;3.40;;
32633;SDS011;19043;51.012;5.648;2022-08-27T03:32:50;8.52;;;4.22;;
32633;SDS011;19043;51.012;5.648;2022-08-27T03:35:16;6.90;;;4.30;;
32633;SDS011;19043;51.012;5.648;2022-08-27T03:37:43;6.70;;;3.60;;
32633;SDS011;19043;51.012;5.648;2022-08-27T03:40:08;6.80;;;4.10;;
32633;SDS011;19043;51.012;5.648;2022-08-27T03:42:34;6.15;;;3.47;;
32633;SDS011;19043;51.012;5.648;2022-08-27T03:45:00;5.97;;;3.58;;
32633;SDS011;19043;51.012;5.648;2022-08-27T03:47:26;12.07;;;4.20;;
32633;SDS011;19043;51.012;5.648;2022-08-27T03:49:51;7.30;;;3.50;;
32633;SDS011;19043;51.012;5.648;2022-08-27T03:52:16;11.60;;;4.45;;
32633;SDS011;19043;51.012;5.648;2022-08-27T03:54:43;7.30;;;3.58;;
32633;SDS011;19043;51.012;5.648;2022-08-27T03:57:08;8.90;;;3.75;;
32633;SDS011;19043;51.012;5.648;2022-08-27T03:59:34;5.85;;;3.00;;
32633;SDS011;19043;51.012;5.648;2022-08-27T04:02:00;6.25;;;3.10;;
32633;SDS011;19043;51.012;5.648;2022-08-27T04:04:25;7.00;;;3.38;;
32633;SDS011;19043;51.012;5.648;2022-08-27T04:06:51;8.82;;;3.58;;
32633;SDS011;19043;51.012;5.648;2022-08-27T04:09:16;5.93;;;3.15;;
32633;SDS011;19043;51.012;5.648;2022-08-27T04:11:42;7.00;;;3.30;;
32633;SDS011;19043;51.012;5.648;2022-08-27T04:14:07;6.70;;;3.97;;
32633;SDS011;19043;51.012;5.648;2022-08-27T04:16:33;7.50;;;3.13;;
32633;SDS011;19043;51.012;5.648;2022-08-27T04:18:59;6.53;;;3.65;;
32633;SDS011;19043;51.012;5.648;2022-08-27T04:21:25;8.05;;;4.28;;
32633;SDS011;19043;51.012;5.648;2022-08-27T04:23:51;16.30;;;4.25;;
32633;SDS011;19043;51.012;5.648;2022-08-27T04:26:16;7.90;;;3.72;;
32633;SDS011;19043;51.012;5.648;2022-08-27T04:28:42;5.07;;;3.00;;
32633;SDS011;19043;51.012;5.648;2022-08-27T04:31:07;9.80;;;3.97;;
32633;SDS011;19043;51.012;5.648;2022-08-27T04:33:33;6.97;;;3.83;;
32633;SDS011;19043;51.012;5.648;2022-08-27T04:35:59;7.75;;;3.60;;
32633;SDS011;19043;51.012;5.648;2022-08-27T04:38:31;8.82;;;3.65;;
32633;SDS011;19043;51.012;5.648;2022-08-27T04:40:57;9.20;;;4.18;;
32633;SDS011;19043;51.012;5.648;2022-08-27T04:43:41;5.13;;;3.60;;
32633;SDS011;19043;51.012;5.648;2022-08-27T04:46:06;5.25;;;3.70;;
32633;SDS011;19043;51.012;5.648;2022-08-27T04:48:32;5.90;;;3.50;;
32633;SDS011;19043;51.012;5.648;2022-08-27T04:50:58;8.90;;;4.38;;
32633;SDS011;19043;51.012;5.648;2022-08-27T04:53:23;9.50;;;3.60;;
32633;SDS011;19043;51.012;5.648;2022-08-27T04:55:50;8.82;;;4.32;;
32633;SDS011;19043;51.012;5.648;2022-08-27T04:58:17;7.75;;;4.55;;
32633;SDS011;19043;51.012;5.648;2022-08-27T05:00:46;10.48;;;4.07;;
32633;SDS011;19043;51.012;5.648;2022-08-27T05:03:13;8.05;;;3.95;;
32633;SDS011;19043;51.012;5.648;2022-08-27T05:05:40;8.38;;;4.13;;
32633;SDS011;19043;51.012;5.648;2022-08-27T05:08:06;8.20;;;3.55;;
32633;SDS011;19043;51.012;5.648;2022-08-27T05:10:41;4.68;;;3.20;;
32633;SDS011;19043;51.012;5.648;2022-08-27T05:13:08;13.40;;;4.55;;
32633;SDS011;19043;51.012;5.648;2022-08-27T05:15:34;7.57;;;3.90;;
32633;SDS011;19043;51.012;5.648;2022-08-27T05:18:00;6.55;;;3.95;;
32633;SDS011;19043;51.012;5.648;2022-08-27T05:20:26;6.53;;;3.60;;
32633;SDS011;19043;51.012;5.648;2022-08-27T05:22:52;6.97;;;4.03;;
32633;SDS011;19043;51.012;5.648;2022-08-27T05:25:17;9.38;;;4.78;;
32633;SDS011;19043;51.012;5.648;2022-08-27T05:27:43;6.70;;;3.92;;
32633;SDS011;19043;51.012;5.648;2022-08-27T05:30:08;9.20;;;3.45;;
32633;SDS011;19043;51.012;5.648;2022-08-27T05:32:34;10.35;;;4.00;;
32633;SDS011;19043;51.012;5.648;2022-08-27T05:35:00;6.45;;;3.20;;
32633;SDS011;19043;51.012;5.648;2022-08-27T05:37:25;6.40;;;3.63;;
32633;SDS011;19043;51.012;5.648;2022-08-27T05:39:51;10.85;;;4.40;;
32633;SDS011;19043;51.012;5.648;2022-08-27T05:42:16;8.77;;;3.67;;
32633;SDS011;19043;51.012;5.648;2022-08-27T05:44:43;6.53;;;3.72;;
32633;SDS011;19043;51.012;5.648;2022-08-27T05:47:08;8.20;;;3.88;;
32633;SDS011;19043;51.012;5.648;2022-08-27T05:49:34;7.43;;;3.45;;
32633;SDS011;19043;51.012;5.648;2022-08-27T05:51:59;7.38;;;3.55;;
32633;SDS011;19043;51.012;5.648;2022-08-27T05:54:25;6.88;;;3.83;;
32633;SDS011;19043;51.012;5.648;2022-08-27T05:56:50;8.93;;;3.50;;
32633;SDS011;19043;51.012;5.648;2022-08-27T05:59:16;5.70;;;3.88;;
32633;SDS011;19043;51.012;5.648;2022-08-27T06:04:26;13.45;;;3.60;;
32633;SDS011;19043;51.012;5.648;2022-08-27T06:06:51;6.70;;;3.20;;
32633;SDS011;19043;51.012;5.648;2022-08-27T06:09:19;6.30;;;3.03;;
32633;SDS011;19043;51.012;5.648;2022-08-27T06:11:47;6.80;;;3.75;;
32633;SDS011;19043;51.012;5.648;2022-08-27T06:14:13;7.35;;;4.30;;
32633;SDS011;19043;51.012;5.648;2022-08-27T06:16:38;8.18;;;3.53;;
32633;SDS011;19043;51.012;5.648;2022-08-27T06:19:04;6.85;;;3.35;;
32633;SDS011;19043;51.012;5.648;2022-08-27T06:21:30;10.15;;;3.90;;
32633;SDS011;19043;51.012;5.648;2022-08-27T06:23:57;9.30;;;4.25;;
32633;SDS011;19043;51.012;5.648;2022-08-27T06:26:23;5.88;;;3.33;;
32633;SDS011;19043;51.012;5.648;2022-08-27T06:28:49;6.80;;;3.33;;
32633;SDS011;19043;51.012;5.648;2022-08-27T06:31:16;9.32;;;3.95;;
32633;SDS011;19043;51.012;5.648;2022-08-27T06:33:47;7.90;;;3.88;;
32633;SDS011;19043;51.012;5.648;2022-08-27T06:36:14;10.25;;;3.13;;
32633;SDS011;19043;51.012;5.648;2022-08-27T06:38:43;8.55;;;3.55;;
32633;SDS011;19043;51.012;5.648;2022-08-27T06:41:10;6.78;;;3.88;;
32633;SDS011;19043;51.012;5.648;2022-08-27T06:43:38;9.27;;;3.45;;
32633;SDS011;19043;51.012;5.648;2022-08-27T06:46:05;12.10;;;3.70;;
32633;SDS011;19043;51.012;5.648;2022-08-27T06:48:31;7.43;;;3.78;;
32633;SDS011;19043;51.012;5.648;2022-08-27T06:50:57;8.93;;;3.42;;
32633;SDS011;19043;51.012;5.648;2022-08-27T06:53:22;9.43;;;3.72;;
32633;SDS011;19043;51.012;5.648;2022-08-27T06:55:48;6.28;;;3.83;;
32633;SDS011;19043;51.012;5.648;2022-08-27T06:58:14;9.57;;;3.95;;
32633;SDS011;19043;51.012;5.648;2022-08-27T07:00:40;9.43;;;3.80;;
32633;SDS011;19043;51.012;5.648;2022-08-27T07:03:06;12.10;;;4.22;;
32633;SDS011;19043;51.012;5.648;2022-08-27T07:05:32;8.68;;;3.90;;
32633;SDS011;19043;51.012;5.648;2022-08-27T07:07:59;10.82;;;3.83;;
32633;SDS011;19043;51.012;5.648;2022-08-27T07:10:25;7.63;;;3.58;;
32633;SDS011;19043;51.012;5.648;2022-08-27T07:12:50;7.25;;;4.25;;
32633;SDS011;19043;51.012;5.648;2022-08-27T07:15:16;5.85;;;3.45;;
32633;SDS011;19043;51.012;5.648;2022-08-27T07:17:41;7.07;;;3.45;;
32633;SDS011;19043;51.012;5.648;2022-08-27T07:20:09;6.78;;;3.63;;
32633;SDS011;19043;51.012;5.648;2022-08-27T07:22:37;8.32;;;4.30;;
32633;SDS011;19043;51.012;5.648;2022-08-27T07:25:04;6.88;;;3.25;;
32633;SDS011;19043;51.012;5.648;2022-08-27T07:27:30;8.05;;;3.50;;
32633;SDS011;19043;51.012;5.648;2022-08-27T07:29:55;7.60;;;3.80;;
32633;SDS011;19043;51.012;5.648;2022-08-27T07:32:22;11.63;;;3.90;;
32633;SDS011;19043;51.012;5.648;2022-08-27T07:34:48;7.55;;;3.65;;
32633;SDS011;19043;51.012;5.648;2022-08-27T07:37:13;10.32;;;3.58;;
32633;SDS011;19043;51.012;5.648;2022-08-27T07:39:38;11.20;;;3.92;;
32633;SDS011;19043;51.012;5.648;2022-08-27T07:42:04;7.57;;;3.70;;
32633;SDS011;19043;51.012;5.648;2022-08-27T07:44:48;5.37;;;2.63;;
32633;SDS011;19043;51.012;5.648;2022-08-27T07:47:14;5.60;;;3.08;;
32633;SDS011;19043;51.012;5.648;2022-08-27T07:49:39;6.88;;;4.07;;
32633;SDS011;19043;51.012;5.648;2022-08-27T07:52:05;7.07;;;2.65;;
32633;SDS011;19043;51.012;5.648;2022-08-27T07:54:30;7.32;;;3.80;;
32633;SDS011;19043;51.012;5.648;2022-08-27T07:56:56;12.82;;;3.50;;
32633;SDS011;19043;51.012;5.648;2022-08-27T07:59:22;13.23;;;3.78;;
32633;SDS011;19043;51.012;5.648;2022-08-27T08:01:48;7.93;;;3.63;;
32633;SDS011;19043;51.012;5.648;2022-08-27T08:04:14;7.95;;;3.45;;
32633;SDS011;19043;51.012;5.648;2022-08-27T08:06:39;4.65;;;2.75;;
32633;SDS011;19043;51.012;5.648;2022-08-27T08:09:05;7.80;;;3.97;;
32633;SDS011;19043;51.012;5.648;2022-08-27T08:11:31;6.25;;;3.47;;
32633;SDS011;19043;51.012;5.648;2022-08-27T08:13:57;7.57;;;3.85;;
32633;SDS011;19043;51.012;5.648;2022-08-27T08:16:23;6.90;;;3.35;;
32633;SDS011;19043;51.012;5.648;2022-08-27T08:18:49;15.60;;;2.90;;
32633;SDS011;19043;51.012;5.648;2022-08-27T08:21:15;9.02;;;3.05;;
32633;SDS011;19043;51.012;5.648;2022-08-27T08:23:41;7.35;;;3.42;;
32633;SDS011;19043;51.012;5.648;2022-08-27T08:26:07;7.45;;;3.17;;
32633;SDS011;19043;51.012;5.648;2022-08-27T08:28:33;9.73;;;3.15;;
32633;SDS011;19043;51.012;5.648;2022-08-27T08:30:59;6.35;;;3.22;;
32633;SDS011;19043;51.012;5.648;2022-08-27T08:33:25;8.52;;;2.95;;
32633;SDS011;19043;51.012;5.648;2022-08-27T08:35:51;6.55;;;3.13;;
32633;SDS011;19043;51.012;5.648;2022-08-27T08:38:17;6.63;;;2.67;;
32633;SDS011;19043;51.012;5.648;2022-08-27T08:40:44;7.75;;;3.33;;
32633;SDS011;19043;51.012;5.648;2022-08-27T08:43:23;10.23;;;3.80;;
32633;SDS011;19043;51.012;5.648;2022-08-27T08:45:54;8.25;;;3.60;;
32633;SDS011;19043;51.012;5.648;2022-08-27T08:48:21;12.50;;;3.40;;
32633;SDS011;19043;51.012;5.648;2022-08-27T08:53:37;6.75;;;3.33;;
32633;SDS011;19043;51.012;5.648;2022-08-27T08:56:05;4.97;;;2.72;;
32633;SDS011;19043;51.012;5.648;2022-08-27T09:01:05;5.82;;;2.88;;
32633;SDS011;19043;51.012;5.648;2022-08-27T09:03:32;6.80;;;2.95;;
32633;SDS011;19043;51.012;5.648;2022-08-27T09:06:01;5.90;;;2.80;;
32633;SDS011;19043;51.012;5.648;2022-08-27T09:08:37;5.68;;;2.65;;
32633;SDS011;19043;51.012;5.648;2022-08-27T09:11:05;7.80;;;3.00;;
32633;SDS011;19043;51.012;5.648;2022-08-27T09:13:52;10.82;;;3.00;;
32633;SDS011;19043;51.012;5.648;2022-08-27T09:16:20;7.72;;;2.97;;
32633;SDS011;19043;51.012;5.648;2022-08-27T09:18:45;8.30;;;3.50;;
32633;SDS011;19043;51.012;5.648;2022-08-27T09:26:16;7.22;;;3.17;;
32633;SDS011;19043;51.012;5.648;2022-08-27T09:29:10;5.93;;;2.83;;
32633;SDS011;19043;51.012;5.648;2022-08-27T09:31:40;5.20;;;2.78;;
32633;SDS011;19043;51.012;5.648;2022-08-27T09:34:21;7.13;;;3.35;;
32633;SDS011;19043;51.012;5.648;2022-08-27T09:39:55;6.30;;;2.92;;
32633;SDS011;19043;51.012;5.648;2022-08-27T09:42:30;8.90;;;4.68;;
32633;SDS011;19043;51.012;5.648;2022-08-27T09:44:59;5.50;;;2.35;;
32633;SDS011;19043;51.012;5.648;2022-08-27T09:47:24;4.45;;;2.28;;
32633;SDS011;19043;51.012;5.648;2022-08-27T09:50:03;4.82;;;2.63;;
32633;SDS011;19043;51.012;5.648;2022-08-27T09:57:58;8.20;;;2.83;;
32633;SDS011;19043;51.012;5.648;2022-08-27T10:00:31;4.53;;;2.55;;
32633;SDS011;19043;51.012;5.648;2022-08-27T10:03:01;6.60;;;3.38;;
32633;SDS011;19043;51.012;5.648;2022-08-27T10:05:38;7.05;;;2.30;;
32633;SDS011;19043;51.012;5.648;2022-08-27T10:10:38;5.65;;;2.65;;
32633;SDS011;19043;51.012;5.648;2022-08-27T10:18:46;10.98;;;2.90;;
32633;SDS011;19043;51.012;5.648;2022-08-27T10:21:18;5.50;;;2.78;;
32633;SDS011;19043;51.012;5.648;2022-08-27T10:24:11;5.30;;;2.60;;
32633;SDS011;19043;51.012;5.648;2022-08-27T10:29:43;5.23;;;2.93;;
32633;SDS011;19043;51.012;5.648;2022-08-27T10:32:22;5.38;;;2.88;;
32633;SDS011;19043;51.012;5.648;2022-08-27T10:35:04;8.52;;;2.40;;
32633;SDS011;19043;51.012;5.648;2022-08-27T10:57:03;4.88;;;2.58;;
32633;SDS011;19043;51.012;5.648;2022-08-27T11:05:15;4.07;;;2.30;;
32633;SDS011;19043;51.012;5.648;2022-08-27T11:07:42;4.55;;;2.58;;
32633;SDS011;19043;51.012;5.648;2022-08-27T11:12:48;6.05;;;3.17;;
32633;SDS011;19043;51.012;5.648;2022-08-27T11:15:23;7.10;;;3.55;;
32633;SDS011;19043;51.012;5.648;2022-08-27T11:18:02;7.32;;;3.15;;
32633;SDS011;19043;51.012;5.648;2022-08-27T11:20:47;8.20;;;2.78;;
32633;SDS011;19043;51.012;5.648;2022-08-27T11:23:20;8.02;;;3.90;;
32633;SDS011;19043;51.012;5.648;2022-08-27T11:25:55;7.70;;;3.57;;
32633;SDS011;19043;51.012;5.648;2022-08-27T11:28:23;12.35;;;4.22;;
32633;SDS011;19043;51.012;5.648;2022-08-27T11:30:59;9.77;;;3.42;;
32633;SDS011;19043;51.012;5.648;2022-08-27T11:33:34;9.15;;;3.67;;
32633;SDS011;19043;51.012;5.648;2022-08-27T11:44:01;5.05;;;3.40;;
32633;SDS011;19043;51.012;5.648;2022-08-27T11:46:28;6.13;;;3.67;;
32633;SDS011;19043;51.012;5.648;2022-08-27T11:49:06;22.92;;;3.63;;
32633;SDS011;19043;51.012;5.648;2022-08-27T11:51:33;6.85;;;3.53;;
32633;SDS011;19043;51.012;5.648;2022-08-27T11:54:05;5.75;;;3.00;;
32633;SDS011;19043;51.012;5.648;2022-08-27T11:56:34;6.85;;;3.40;;
32633;SDS011;19043;51.012;5.648;2022-08-27T11:59:11;7.40;;;3.90;;
32633;SDS011;19043;51.012;5.648;2022-08-27T12:01:48;6.28;;;3.88;;
32633;SDS011;19043;51.012;5.648;2022-08-27T12:07:00;7.60;;;3.47;;
32633;SDS011;19043;51.012;5.648;2022-08-27T12:09:41;9.40;;;4.45;;
32633;SDS011;19043;51.012;5.648;2022-08-27T12:12:18;9.13;;;3.90;;
32633;SDS011;19043;51.012;5.648;2022-08-27T12:14:47;8.35;;;2.90;;
32633;SDS011;19043;51.012;5.648;2022-08-27T12:17:21;15.85;;;3.95;;
32633;SDS011;19043;51.012;5.648;2022-08-27T12:25:38;5.97;;;3.13;;
32633;SDS011;19043;51.012;5.648;2022-08-27T12:28:05;6.70;;;4.05;;
32633;SDS011;19043;51.012;5.648;2022-08-27T12:30:33;5.70;;;4.20;;
32633;SDS011;19043;51.012;5.648;2022-08-27T12:33:20;8.65;;;4.38;;
32633;SDS011;19043;51.012;5.648;2022-08-27T12:35:58;4.72;;;3.55;;
32633;SDS011;19043;51.012;5.648;2022-08-27T12:40:56;7.28;;;3.72;;
32633;SDS011;19043;51.012;5.648;2022-08-27T12:43:28;7.05;;;3.60;;
32633;SDS011;19043;51.012;5.648;2022-08-27T12:46:02;12.93;;;3.58;;
32633;SDS011;19043;51.012;5.648;2022-08-27T12:48:34;8.45;;;3.58;;
32633;SDS011;19043;51.012;5.648;2022-08-27T12:51:06;5.95;;;3.53;;
32633;SDS011;19043;51.012;5.648;2022-08-27T12:58:55;5.90;;;2.97;;
32633;SDS011;19043;51.012;5.648;2022-08-27T13:04:27;6.28;;;3.00;;
32633;SDS011;19043;51.012;5.648;2022-08-27T13:06:55;11.40;;;3.97;;
32633;SDS011;19043;51.012;5.648;2022-08-27T13:09:29;6.15;;;3.20;;
32633;SDS011;19043;51.012;5.648;2022-08-27T13:11:56;7.05;;;3.15;;
32633;SDS011;19043;51.012;5.648;2022-08-27T13:14:24;8.73;;;3.42;;
32633;SDS011;19043;51.012;5.648;2022-08-27T13:16:52;7.15;;;3.20;;
32633;SDS011;19043;51.012;5.648;2022-08-27T13:19:29;6.18;;;3.10;;
32633;SDS011;19043;51.012;5.648;2022-08-27T13:21:56;6.80;;;3.63;;
32633;SDS011;19043;51.012;5.648;2022-08-27T13:24:33;5.53;;;3.20;;
32633;SDS011;19043;51.012;5.648;2022-08-27T13:27:09;5.60;;;3.10;;
32633;SDS011;19043;51.012;5.648;2022-08-27T13:29:35;8.50;;;2.67;;
32633;SDS011;19043;51.012;5.648;2022-08-27T13:32:01;5.03;;;2.53;;
32633;SDS011;19043;51.012;5.648;2022-08-27T13:34:27;21.40;;;4.10;;
32633;SDS011;19043;51.012;5.648;2022-08-27T13:37:03;6.22;;;3.08;;
32633;SDS011;19043;51.012;5.648;2022-08-27T13:39:34;5.88;;;2.60;;
32633;SDS011;19043;51.012;5.648;2022-08-27T13:42:01;7.63;;;3.40;;
32633;SDS011;19043;51.012;5.648;2022-08-27T13:44:35;6.22;;;3.05;;
32633;SDS011;19043;51.012;5.648;2022-08-27T13:47:24;6.93;;;3.00;;
32633;SDS011;19043;51.012;5.648;2022-08-27T13:49:49;6.10;;;2.95;;
32633;SDS011;19043;51.012;5.648;2022-08-27T13:52:26;5.47;;;2.78;;
32633;SDS011;19043;51.012;5.648;2022-08-27T13:55:07;3.70;;;2.30;;
32633;SDS011;19043;51.012;5.648;2022-08-27T13:57:44;5.45;;;2.60;;
32633;SDS011;19043;51.012;5.648;2022-08-27T14:00:14;4.72;;;2.50;;
32633;SDS011;19043;51.012;5.648;2022-08-27T14:02:42;12.13;;;2.80;;
32633;SDS011;19043;51.012;5.648;2022-08-27T14:05:45;11.77;;;2.92;;
32633;SDS011;19043;51.012;5.648;2022-08-27T14:08:09;5.15;;;2.67;;
32633;SDS011;19043;51.012;5.648;2022-08-27T14:10:40;10.63;;;3.35;;
32633;SDS011;19043;51.012;5.648;2022-08-27T14:13:19;4.68;;;2.63;;
32633;SDS011;19043;51.012;5.648;2022-08-27T14:15:51;12.55;;;2.92;;
32633;SDS011;19043;51.012;5.648;2022-08-27T14:18:31;5.95;;;2.97;;
32633;SDS011;19043;51.012;5.648;2022-08-27T14:20:59;7.75;;;2.90;;
32633;SDS011;19043;51.012;5.648;2022-08-27T14:23:25;8.10;;;3.38;;
32633;SDS011;19043;51.012;5.648;2022-08-27T14:25:52;4.88;;;2.85;;
32633;SDS011;19043;51.012;5.648;2022-08-27T14:28:19;9.70;;;2.67;;
32633;SDS011;19043;51.012;5.648;2022-08-27T14:30:44;4.00;;;2.28;;
32633;SDS011;19043;51.012;5.648;2022-08-27T14:33:11;5.82;;;2.67;;
32633;SDS011;19043;51.012;5.648;2022-08-27T14:35:37;7.25;;;2.35;;
32633;SDS011;19043;51.012;5.648;2022-08-27T14:40:38;5.70;;;2.65;;
32633;SDS011;19043;51.012;5.648;2022-08-27T14:43:04;6.47;;;2.95;;
32633;SDS011;19043;51.012;5.648;2022-08-27T14:45:29;5.55;;;2.90;;
32633;SDS011;19043;51.012;5.648;2022-08-27T14:47:54;7.38;;;2.35;;
32633;SDS011;19043;51.012;5.648;2022-08-27T14:50:21;4.32;;;2.45;;
32633;SDS011;19043;51.012;5.648;2022-08-27T14:52:46;7.03;;;2.83;;
32633;SDS011;19043;51.012;5.648;2022-08-27T14:55:12;3.35;;;1.80;;
32633;SDS011;19043;51.012;5.648;2022-08-27T14:57:38;6.60;;;2.92;;
32633;SDS011;19043;51.012;5.648;2022-08-27T15:00:04;7.28;;;2.65;;
32633;SDS011;19043;51.012;5.648;2022-08-27T15:02:31;9.13;;;2.95;;
32633;SDS011;19043;51.012;5.648;2022-08-27T15:04:56;5.22;;;2.20;;
32633;SDS011;19043;51.012;5.648;2022-08-27T15:07:22;7.00;;;2.50;;
32633;SDS011;19043;51.012;5.648;2022-08-27T15:09:47;6.60;;;2.20;;
32633;SDS011;19043;51.012;5.648;2022-08-27T15:12:12;4.22;;;2.25;;
32633;SDS011;19043;51.012;5.648;2022-08-27T15:14:38;3.88;;;2.08;;
32633;SDS011;19043;51.012;5.648;2022-08-27T15:17:04;5.97;;;2.10;;
32633;SDS011;19043;51.012;5.648;2022-08-27T15:19:32;16.33;;;2.28;;
32633;SDS011;19043;51.012;5.648;2022-08-27T15:22:14;7.15;;;2.45;;
32633;SDS011;19043;51.012;5.648;2022-08-27T15:27:09;4.43;;;2.00;;
32633;SDS011;19043;51.012;5.648;2022-08-27T15:29:35;5.15;;;2.30;;
32633;SDS011;19043;51.012;5.648;2022-08-27T15:32:00;3.78;;;1.73;;
32633;SDS011;19043;51.012;5.648;2022-08-27T15:34:26;3.33;;;1.70;;
32633;SDS011;19043;51.012;5.648;2022-08-27T15:36:51;6.47;;;2.28;;
32633;SDS011;19043;51.012;5.648;2022-08-27T15:39:17;8.05;;;1.90;;
32633;SDS011;19043;51.012;5.648;2022-08-27T15:41:42;7.43;;;2.08;;
32633;SDS011;19043;51.012;5.648;2022-08-27T15:44:08;6.30;;;2.15;;
32633;SDS011;19043;51.012;5.648;2022-08-27T15:46:33;4.35;;;1.65;;
32633;SDS011;19043;51.012;5.648;2022-08-27T15:48:59;4.63;;;1.52;;
32633;SDS011;19043;51.012;5.648;2022-08-27T15:51:28;4.00;;;1.70;;
32633;SDS011;19043;51.012;5.648;2022-08-27T15:53:55;4.20;;;1.63;;
32633;SDS011;19043;51.012;5.648;2022-08-27T15:56:21;5.15;;;2.17;;
32633;SDS011;19043;51.012;5.648;2022-08-27T15:58:47;7.50;;;2.05;;
32633;SDS011;19043;51.012;5.648;2022-08-27T16:01:14;7.22;;;2.22;;
32633;SDS011;19043;51.012;5.648;2022-08-27T16:03:43;5.57;;;2.30;;
32633;SDS011;19043;51.012;5.648;2022-08-27T16:06:09;7.47;;;2.08;;
32633;SDS011;19043;51.012;5.648;2022-08-27T16:08:35;4.57;;;1.70;;
32633;SDS011;19043;51.012;5.648;2022-08-27T16:11:01;4.80;;;1.60;;
32633;SDS011;19043;51.012;5.648;2022-08-27T16:13:26;4.22;;;1.70;;
32633;SDS011;19043;51.012;5.648;2022-08-27T16:15:52;5.18;;;1.98;;
32633;SDS011;19043;51.012;5.648;2022-08-27T16:18:26;5.60;;;1.77;;
32633;SDS011;19043;51.012;5.648;2022-08-27T16:20:53;3.30;;;1.63;;
32633;SDS011;19043;51.012;5.648;2022-08-27T16:23:20;3.47;;;1.75;;
32633;SDS011;19043;51.012;5.648;2022-08-27T16:25:45;5.43;;;2.20;;
32633;SDS011;19043;51.012;5.648;2022-08-27T16:28:11;4.15;;;1.70;;